sensor_id;sensor_type;location;lat;lon;timestamp;temperature;humidity
49222;DHT22;35047;37.588;-122.048;2023-06-05T00:02:19;36.30;39.70
49222;DHT22;35047;37.588;-122.048;2023-06-05T00:04:46;36.30;39.50
49222;DHT22;35047;37.588;-122.048;2023-06-05T00:07:12;36.20;39.40
49222;DHT22;35047;37.588;-122.048;2023-06-05T00:09:38;36.30;39.50
49222;DHT22;35047;37.588;-122.048;2023-06-05T00:12:05;36.40;39.40
49222;DHT22;35047;37.588;-122.048;2023-06-05T00:14:32;36.40;39.50
49222;DHT22;35047;37.588;-122.048;2023-06-05T00:16:59;36.30;39.10
49222;DHT22;35047;37.588;-122.048;2023-06-05T00:19:26;36.30;39.20
49222;DHT22;35047;37.588;-122.048;2023-06-05T00:21:53;36.30;39.10
49222;DHT22;35047;37.588;-122.048;2023-06-05T00:24:20;36.30;39.10
49222;DHT22;35047;37.588;-122.048;2023-06-05T00:26:47;36.20;38.80
49222;DHT22;35047;37.588;-122.048;2023-06-05T00:29:13;36.30;38.90
49222;DHT22;35047;37.588;-122.048;2023-06-05T00:31:39;36.10;38.60
49222;DHT22;35047;37.588;-122.048;2023-06-05T00:34:06;36.20;39.20
49222;DHT22;35047;37.588;-122.048;2023-06-05T00:36:32;36.20;39.40
49222;DHT22;35047;37.588;-122.048;2023-06-05T00:38:59;36.20;38.40
49222;DHT22;35047;37.588;-122.048;2023-06-05T00:41:25;36.00;38.70
49222;DHT22;35047;37.588;-122.048;2023-06-05T00:43:52;36.00;39.20
49222;DHT22;35047;37.588;-122.048;2023-06-05T00:46:19;35.80;38.70
49222;DHT22;35047;37.588;-122.048;2023-06-05T00:48:46;35.60;39.20
49222;DHT22;35047;37.588;-122.048;2023-06-05T00:51:15;35.50;39.20
49222;DHT22;35047;37.588;-122.048;2023-06-05T00:53:44;35.60;39.20
49222;DHT22;35047;37.588;-122.048;2023-06-05T00:56:11;35.60;39.30
49222;DHT22;35047;37.588;-122.048;2023-06-05T00:58:38;35.70;38.90
49222;DHT22;35047;37.588;-122.048;2023-06-05T01:01:06;35.70;38.90
49222;DHT22;35047;37.588;-122.048;2023-06-05T01:03:32;35.70;38.90
49222;DHT22;35047;37.588;-122.048;2023-06-05T01:06:02;35.60;38.60
49222;DHT22;35047;37.588;-122.048;2023-06-05T01:08:33;35.50;38.60
49222;DHT22;35047;37.588;-122.048;2023-06-05T01:11:22;35.50;38.90
49222;DHT22;35047;37.588;-122.048;2023-06-05T01:16:38;35.50;38.80
49222;DHT22;35047;37.588;-122.048;2023-06-05T01:19:06;35.50;38.40
49222;DHT22;35047;37.588;-122.048;2023-06-05T01:21:36;35.40;38.40
49222;DHT22;35047;37.588;-122.048;2023-06-05T01:24:03;35.20;38.70
49222;DHT22;35047;37.588;-122.048;2023-06-05T01:26:43;35.10;38.90
49222;DHT22;35047;37.588;-122.048;2023-06-05T01:29:23;34.90;38.60
49222;DHT22;35047;37.588;-122.048;2023-06-05T01:31:52;34.60;38.80
49222;DHT22;35047;37.588;-122.048;2023-06-05T01:34:22;34.30;39.50
49222;DHT22;35047;37.588;-122.048;2023-06-05T01:36:51;34.10;39.90
49222;DHT22;35047;37.588;-122.048;2023-06-05T01:39:19;33.80;39.70
49222;DHT22;35047;37.588;-122.048;2023-06-05T01:41:46;33.60;39.80
49222;DHT22;35047;37.588;-122.048;2023-06-05T01:44:14;33.30;40.00
49222;DHT22;35047;37.588;-122.048;2023-06-05T01:46:44;33.10;40.20
49222;DHT22;35047;37.588;-122.048;2023-06-05T01:49:14;32.90;40.90
49222;DHT22;35047;37.588;-122.048;2023-06-05T01:51:40;32.80;40.80
49222;DHT22;35047;37.588;-122.048;2023-06-05T01:54:07;32.60;40.90
49222;DHT22;35047;37.588;-122.048;2023-06-05T01:56:33;32.50;41.20
49222;DHT22;35047;37.588;-122.048;2023-06-05T01:59:02;32.40;41.30
49222;DHT22;35047;37.588;-122.048;2023-06-05T02:01:33;32.20;41.30
49222;DHT22;35047;37.588;-122.048;2023-06-05T02:04:01;32.10;41.50
49222;DHT22;35047;37.588;-122.048;2023-06-05T02:06:35;31.90;41.60
49222;DHT22;35047;37.588;-122.048;2023-06-05T02:09:08;31.80;41.90
49222;DHT22;35047;37.588;-122.048;2023-06-05T02:11:41;31.60;42.30
49222;DHT22;35047;37.588;-122.048;2023-06-05T02:14:11;31.40;42.40
49222;DHT22;35047;37.588;-122.048;2023-06-05T02:16:39;31.20;42.70
49222;DHT22;35047;37.588;-122.048;2023-06-05T02:19:06;31.00;43.00
49222;DHT22;35047;37.588;-122.048;2023-06-05T02:21:33;30.80;44.10
49222;DHT22;35047;37.588;-122.048;2023-06-05T02:24:00;30.60;44.00
49222;DHT22;35047;37.588;-122.048;2023-06-05T02:26:27;30.40;44.20
49222;DHT22;35047;37.588;-122.048;2023-06-05T02:29:02;30.20;44.50
49222;DHT22;35047;37.588;-122.048;2023-06-05T02:31:28;30.10;44.80
49222;DHT22;35047;37.588;-122.048;2023-06-05T02:33:57;29.90;45.30
49222;DHT22;35047;37.588;-122.048;2023-06-05T02:36:25;29.70;45.50
49222;DHT22;35047;37.588;-122.048;2023-06-05T02:38:52;29.60;46.00
49222;DHT22;35047;37.588;-122.048;2023-06-05T02:41:18;29.40;46.40
49222;DHT22;35047;37.588;-122.048;2023-06-05T02:43:45;29.20;46.90
49222;DHT22;35047;37.588;-122.048;2023-06-05T02:46:12;29.00;47.00
49222;DHT22;35047;37.588;-122.048;2023-06-05T02:48:38;28.90;47.40
49222;DHT22;35047;37.588;-122.048;2023-06-05T02:51:05;28.70;47.60
49222;DHT22;35047;37.588;-122.048;2023-06-05T02:53:32;28.50;47.80
49222;DHT22;35047;37.588;-122.048;2023-06-05T02:55:59;28.40;48.00
49222;DHT22;35047;37.588;-122.048;2023-06-05T02:58:27;28.20;48.30
49222;DHT22;35047;37.588;-122.048;2023-06-05T03:00:55;28.00;48.60
49222;DHT22;35047;37.588;-122.048;2023-06-05T03:03:36;27.90;48.90
49222;DHT22;35047;37.588;-122.048;2023-06-05T03:06:03;27.80;49.30
49222;DHT22;35047;37.588;-122.048;2023-06-05T03:08:34;27.70;49.50
49222;DHT22;35047;37.588;-122.048;2023-06-05T03:11:02;27.50;49.70
49222;DHT22;35047;37.588;-122.048;2023-06-05T03:13:29;27.40;49.80
49222;DHT22;35047;37.588;-122.048;2023-06-05T03:15:57;27.30;49.80
49222;DHT22;35047;37.588;-122.048;2023-06-05T03:18:24;27.20;50.20
49222;DHT22;35047;37.588;-122.048;2023-06-05T03:20:52;27.10;50.40
49222;DHT22;35047;37.588;-122.048;2023-06-05T03:23:28;27.00;50.70
49222;DHT22;35047;37.588;-122.048;2023-06-05T03:25:55;27.00;50.80
49222;DHT22;35047;37.588;-122.048;2023-06-05T03:28:23;26.90;51.10
49222;DHT22;35047;37.588;-122.048;2023-06-05T03:30:49;26.70;51.30
49222;DHT22;35047;37.588;-122.048;2023-06-05T03:33:17;26.60;51.50
49222;DHT22;35047;37.588;-122.048;2023-06-05T03:35:43;26.50;51.80
49222;DHT22;35047;37.588;-122.048;2023-06-05T03:38:13;26.40;51.90
49222;DHT22;35047;37.588;-122.048;2023-06-05T03:40:40;26.20;52.00
49222;DHT22;35047;37.588;-122.048;2023-06-05T03:43:07;26.10;52.40
49222;DHT22;35047;37.588;-122.048;2023-06-05T03:45:37;26.00;52.50
49222;DHT22;35047;37.588;-122.048;2023-06-05T03:48:06;25.80;52.80
49222;DHT22;35047;37.588;-122.048;2023-06-05T03:50:32;25.60;53.10
49222;DHT22;35047;37.588;-122.048;2023-06-05T03:53:04;25.60;53.30
49222;DHT22;35047;37.588;-122.048;2023-06-05T03:55:34;25.60;53.30
49222;DHT22;35047;37.588;-122.048;2023-06-05T03:58:17;25.40;53.50
49222;DHT22;35047;37.588;-122.048;2023-06-05T04:00:48;25.30;53.90
49222;DHT22;35047;37.588;-122.048;2023-06-05T04:03:15;25.20;54.10
49222;DHT22;35047;37.588;-122.048;2023-06-05T04:05:42;25.10;54.20
49222;DHT22;35047;37.588;-122.048;2023-06-05T04:08:09;25.00;54.60
49222;DHT22;35047;37.588;-122.048;2023-06-05T04:10:36;24.90;54.70
49222;DHT22;35047;37.588;-122.048;2023-06-05T04:13:03;24.80;55.00
49222;DHT22;35047;37.588;-122.048;2023-06-05T04:15:29;24.70;55.10
49222;DHT22;35047;37.588;-122.048;2023-06-05T04:17:56;24.60;55.20
49222;DHT22;35047;37.588;-122.048;2023-06-05T04:20:23;24.60;55.20
49222;DHT22;35047;37.588;-122.048;2023-06-05T04:22:50;24.50;55.40
49222;DHT22;35047;37.588;-122.048;2023-06-05T04:25:17;24.50;55.60
49222;DHT22;35047;37.588;-122.048;2023-06-05T04:27:44;24.40;55.80
49222;DHT22;35047;37.588;-122.048;2023-06-05T04:30:12;24.30;56.10
49222;DHT22;35047;37.588;-122.048;2023-06-05T04:32:40;24.30;56.20
49222;DHT22;35047;37.588;-122.048;2023-06-05T04:35:11;24.10;56.40
49222;DHT22;35047;37.588;-122.048;2023-06-05T04:37:38;24.00;56.60
49222;DHT22;35047;37.588;-122.048;2023-06-05T04:40:06;24.00;57.00
49222;DHT22;35047;37.588;-122.048;2023-06-05T04:42:36;23.90;57.00
49222;DHT22;35047;37.588;-122.048;2023-06-05T04:45:04;23.90;56.90
49222;DHT22;35047;37.588;-122.048;2023-06-05T04:47:32;23.80;57.20
49222;DHT22;35047;37.588;-122.048;2023-06-05T04:50:01;23.70;57.40
49222;DHT22;35047;37.588;-122.048;2023-06-05T04:52:31;23.70;57.40
49222;DHT22;35047;37.588;-122.048;2023-06-05T04:54:59;23.70;57.60
49222;DHT22;35047;37.588;-122.048;2023-06-05T04:57:29;23.70;57.70
49222;DHT22;35047;37.588;-122.048;2023-06-05T04:59:56;23.60;57.80
49222;DHT22;35047;37.588;-122.048;2023-06-05T05:02:23;23.50;57.90
49222;DHT22;35047;37.588;-122.048;2023-06-05T05:04:50;23.40;58.00
49222;DHT22;35047;37.588;-122.048;2023-06-05T05:07:17;23.40;58.30
49222;DHT22;35047;37.588;-122.048;2023-06-05T05:09:44;23.30;58.30
49222;DHT22;35047;37.588;-122.048;2023-06-05T05:12:12;23.20;58.50
49222;DHT22;35047;37.588;-122.048;2023-06-05T05:14:39;23.20;58.60
49222;DHT22;35047;37.588;-122.048;2023-06-05T05:17:08;23.10;58.70
49222;DHT22;35047;37.588;-122.048;2023-06-05T05:19:35;23.10;58.70
49222;DHT22;35047;37.588;-122.048;2023-06-05T05:22:01;23.10;59.10
49222;DHT22;35047;37.588;-122.048;2023-06-05T05:24:28;23.00;59.10
49222;DHT22;35047;37.588;-122.048;2023-06-05T05:26:55;23.00;59.20
49222;DHT22;35047;37.588;-122.048;2023-06-05T05:29:22;22.90;59.40
49222;DHT22;35047;37.588;-122.048;2023-06-05T05:31:48;22.90;59.60
49222;DHT22;35047;37.588;-122.048;2023-06-05T05:34:17;22.90;59.70
49222;DHT22;35047;37.588;-122.048;2023-06-05T05:36:43;22.80;59.70
49222;DHT22;35047;37.588;-122.048;2023-06-05T05:39:10;22.70;59.70
49222;DHT22;35047;37.588;-122.048;2023-06-05T05:41:37;22.70;59.80
49222;DHT22;35047;37.588;-122.048;2023-06-05T05:44:03;22.70;60.10
49222;DHT22;35047;37.588;-122.048;2023-06-05T05:46:30;22.60;60.30
49222;DHT22;35047;37.588;-122.048;2023-06-05T05:48:56;22.60;60.30
49222;DHT22;35047;37.588;-122.048;2023-06-05T05:51:24;22.60;60.30
49222;DHT22;35047;37.588;-122.048;2023-06-05T05:53:50;22.50;60.50
49222;DHT22;35047;37.588;-122.048;2023-06-05T05:56:17;22.50;60.60
49222;DHT22;35047;37.588;-122.048;2023-06-05T05:58:43;22.40;60.80
49222;DHT22;35047;37.588;-122.048;2023-06-05T06:01:10;22.30;61.00
49222;DHT22;35047;37.588;-122.048;2023-06-05T06:03:38;22.30;61.00
49222;DHT22;35047;37.588;-122.048;2023-06-05T06:06:05;22.30;61.10
49222;DHT22;35047;37.588;-122.048;2023-06-05T06:08:34;22.30;61.20
49222;DHT22;35047;37.588;-122.048;2023-06-05T06:11:01;22.30;61.10
49222;DHT22;35047;37.588;-122.048;2023-06-05T06:13:32;22.20;61.20
49222;DHT22;35047;37.588;-122.048;2023-06-05T06:16:05;22.20;61.50
49222;DHT22;35047;37.588;-122.048;2023-06-05T06:18:32;22.20;61.50
49222;DHT22;35047;37.588;-122.048;2023-06-05T06:20:58;22.10;61.50
49222;DHT22;35047;37.588;-122.048;2023-06-05T06:23:25;22.10;61.70
49222;DHT22;35047;37.588;-122.048;2023-06-05T06:25:51;22.10;61.80
49222;DHT22;35047;37.588;-122.048;2023-06-05T06:28:18;22.10;61.90
49222;DHT22;35047;37.588;-122.048;2023-06-05T06:30:45;22.10;62.00
49222;DHT22;35047;37.588;-122.048;2023-06-05T06:33:12;22.00;62.00
49222;DHT22;35047;37.588;-122.048;2023-06-05T06:35:39;22.00;62.10
49222;DHT22;35047;37.588;-122.048;2023-06-05T06:38:06;22.00;62.10
49222;DHT22;35047;37.588;-122.048;2023-06-05T06:40:32;22.00;62.20
49222;DHT22;35047;37.588;-122.048;2023-06-05T06:42:58;21.90;62.20
49222;DHT22;35047;37.588;-122.048;2023-06-05T06:45:25;21.90;62.40
49222;DHT22;35047;37.588;-122.048;2023-06-05T06:47:52;21.80;62.40
49222;DHT22;35047;37.588;-122.048;2023-06-05T06:50:19;21.90;62.60
49222;DHT22;35047;37.588;-122.048;2023-06-05T06:52:46;21.90;62.60
49222;DHT22;35047;37.588;-122.048;2023-06-05T06:55:12;21.80;62.60
49222;DHT22;35047;37.588;-122.048;2023-06-05T06:57:39;21.70;62.80
49222;DHT22;35047;37.588;-122.048;2023-06-05T07:00:06;21.70;62.80
49222;DHT22;35047;37.588;-122.048;2023-06-05T07:02:36;21.70;62.90
49222;DHT22;35047;37.588;-122.048;2023-06-05T07:05:03;21.70;63.00
49222;DHT22;35047;37.588;-122.048;2023-06-05T07:07:30;21.70;63.00
49222;DHT22;35047;37.588;-122.048;2023-06-05T07:09:56;21.70;63.00
49222;DHT22;35047;37.588;-122.048;2023-06-05T07:12:24;21.60;63.10
49222;DHT22;35047;37.588;-122.048;2023-06-05T07:14:51;21.70;63.10
49222;DHT22;35047;37.588;-122.048;2023-06-05T07:17:17;21.60;63.10
49222;DHT22;35047;37.588;-122.048;2023-06-05T07:19:44;21.60;63.20
49222;DHT22;35047;37.588;-122.048;2023-06-05T07:22:10;21.60;63.30
49222;DHT22;35047;37.588;-122.048;2023-06-05T07:24:37;21.50;63.40
49222;DHT22;35047;37.588;-122.048;2023-06-05T07:27:08;21.40;63.70
49222;DHT22;35047;37.588;-122.048;2023-06-05T07:29:35;21.40;63.70
49222;DHT22;35047;37.588;-122.048;2023-06-05T07:32:01;21.40;63.90
49222;DHT22;35047;37.588;-122.048;2023-06-05T07:34:32;21.40;63.90
49222;DHT22;35047;37.588;-122.048;2023-06-05T07:36:59;21.30;64.00
49222;DHT22;35047;37.588;-122.048;2023-06-05T07:39:26;21.40;64.20
49222;DHT22;35047;37.588;-122.048;2023-06-05T07:41:53;21.30;64.10
49222;DHT22;35047;37.588;-122.048;2023-06-05T07:44:20;21.30;64.10
49222;DHT22;35047;37.588;-122.048;2023-06-05T07:46:48;21.30;64.10
49222;DHT22;35047;37.588;-122.048;2023-06-05T07:49:15;21.20;64.20
49222;DHT22;35047;37.588;-122.048;2023-06-05T07:51:45;21.20;64.40
49222;DHT22;35047;37.588;-122.048;2023-06-05T07:54:14;21.20;64.40
49222;DHT22;35047;37.588;-122.048;2023-06-05T07:56:46;21.20;64.50
49222;DHT22;35047;37.588;-122.048;2023-06-05T07:59:15;21.10;64.40
49222;DHT22;35047;37.588;-122.048;2023-06-05T08:01:42;21.10;64.70
49222;DHT22;35047;37.588;-122.048;2023-06-05T08:04:08;21.10;64.80
49222;DHT22;35047;37.588;-122.048;2023-06-05T08:06:36;21.10;64.80
49222;DHT22;35047;37.588;-122.048;2023-06-05T08:09:08;21.10;64.80
49222;DHT22;35047;37.588;-122.048;2023-06-05T08:11:39;21.00;64.70
49222;DHT22;35047;37.588;-122.048;2023-06-05T08:14:07;21.00;64.90
49222;DHT22;35047;37.588;-122.048;2023-06-05T08:16:35;21.00;65.10
49222;DHT22;35047;37.588;-122.048;2023-06-05T08:19:01;20.90;65.20
49222;DHT22;35047;37.588;-122.048;2023-06-05T08:21:28;20.90;65.40
49222;DHT22;35047;37.588;-122.048;2023-06-05T08:23:54;21.00;65.40
49222;DHT22;35047;37.588;-122.048;2023-06-05T08:26:21;20.90;65.50
49222;DHT22;35047;37.588;-122.048;2023-06-05T08:28:49;20.90;65.50
49222;DHT22;35047;37.588;-122.048;2023-06-05T08:31:16;20.90;65.60
49222;DHT22;35047;37.588;-122.048;2023-06-05T08:33:43;20.90;66.20
49222;DHT22;35047;37.588;-122.048;2023-06-05T08:36:09;20.90;65.60
49222;DHT22;35047;37.588;-122.048;2023-06-05T08:38:36;20.90;65.70
49222;DHT22;35047;37.588;-122.048;2023-06-05T08:41:04;20.80;66.10
49222;DHT22;35047;37.588;-122.048;2023-06-05T08:43:38;20.80;66.30
49222;DHT22;35047;37.588;-122.048;2023-06-05T08:46:09;20.80;66.50
49222;DHT22;35047;37.588;-122.048;2023-06-05T08:48:45;20.80;66.70
49222;DHT22;35047;37.588;-122.048;2023-06-05T08:51:16;20.70;67.00
49222;DHT22;35047;37.588;-122.048;2023-06-05T08:54:01;20.70;67.30
49222;DHT22;35047;37.588;-122.048;2023-06-05T08:56:35;20.80;67.20
49222;DHT22;35047;37.588;-122.048;2023-06-05T08:59:04;20.70;67.20
49222;DHT22;35047;37.588;-122.048;2023-06-05T09:01:31;20.80;67.30
49222;DHT22;35047;37.588;-122.048;2023-06-05T09:04:01;20.70;67.30
49222;DHT22;35047;37.588;-122.048;2023-06-05T09:06:28;20.70;67.30
49222;DHT22;35047;37.588;-122.048;2023-06-05T09:08:54;20.60;67.30
49222;DHT22;35047;37.588;-122.048;2023-06-05T09:11:26;20.60;67.80
49222;DHT22;35047;37.588;-122.048;2023-06-05T09:13:58;20.60;67.90
49222;DHT22;35047;37.588;-122.048;2023-06-05T09:16:38;20.60;67.80
49222;DHT22;35047;37.588;-122.048;2023-06-05T09:19:06;20.60;67.80
49222;DHT22;35047;37.588;-122.048;2023-06-05T09:21:33;20.60;67.90
49222;DHT22;35047;37.588;-122.048;2023-06-05T09:29:28;20.50;67.90
49222;DHT22;35047;37.588;-122.048;2023-06-05T09:31:56;20.50;67.90
49222;DHT22;35047;37.588;-122.048;2023-06-05T09:34:27;20.50;68.10
49222;DHT22;35047;37.588;-122.048;2023-06-05T09:36:59;20.50;68.00
49222;DHT22;35047;37.588;-122.048;2023-06-05T09:39:27;20.50;68.10
49222;DHT22;35047;37.588;-122.048;2023-06-05T09:41:57;20.50;68.40
49222;DHT22;35047;37.588;-122.048;2023-06-05T09:44:25;20.50;68.40
49222;DHT22;35047;37.588;-122.048;2023-06-05T09:49:19;20.40;68.70
49222;DHT22;35047;37.588;-122.048;2023-06-05T09:51:47;20.50;68.90
49222;DHT22;35047;37.588;-122.048;2023-06-05T09:54:14;20.50;69.00
49222;DHT22;35047;37.588;-122.048;2023-06-05T09:56:41;20.50;69.20
49222;DHT22;35047;37.588;-122.048;2023-06-05T09:59:15;20.50;69.50
49222;DHT22;35047;37.588;-122.048;2023-06-05T10:01:42;20.60;69.50
49222;DHT22;35047;37.588;-122.048;2023-06-05T10:04:10;20.60;69.30
49222;DHT22;35047;37.588;-122.048;2023-06-05T10:06:38;20.60;69.50
49222;DHT22;35047;37.588;-122.048;2023-06-05T10:09:07;20.60;69.80
49222;DHT22;35047;37.588;-122.048;2023-06-05T10:11:35;20.60;69.80
49222;DHT22;35047;37.588;-122.048;2023-06-05T10:14:03;20.60;69.70
49222;DHT22;35047;37.588;-122.048;2023-06-05T10:16:29;20.60;69.50
49222;DHT22;35047;37.588;-122.048;2023-06-05T10:18:57;20.70;69.40
49222;DHT22;35047;37.588;-122.048;2023-06-05T10:21:24;20.70;69.50
49222;DHT22;35047;37.588;-122.048;2023-06-05T10:24:34;20.70;69.20
49222;DHT22;35047;37.588;-122.048;2023-06-05T10:27:16;20.80;69.10
49222;DHT22;35047;37.588;-122.048;2023-06-05T10:29:53;20.80;69.00
49222;DHT22;35047;37.588;-122.048;2023-06-05T10:38:06;20.80;69.00
49222;DHT22;35047;37.588;-122.048;2023-06-05T10:40:36;20.90;68.80
49222;DHT22;35047;37.588;-122.048;2023-06-05T10:45:47;20.80;69.10
49222;DHT22;35047;37.588;-122.048;2023-06-05T10:48:13;20.90;69.00
49222;DHT22;35047;37.588;-122.048;2023-06-05T10:50:43;20.90;68.80
49222;DHT22;35047;37.588;-122.048;2023-06-05T10:53:41;20.90;68.60
49222;DHT22;35047;37.588;-122.048;2023-06-05T10:56:08;20.80;69.00
49222;DHT22;35047;37.588;-122.048;2023-06-05T10:58:35;20.80;68.90
49222;DHT22;35047;37.588;-122.048;2023-06-05T11:01:18;20.80;68.90
49222;DHT22;35047;37.588;-122.048;2023-06-05T11:03:58;20.90;68.80
49222;DHT22;35047;37.588;-122.048;2023-06-05T11:06:26;20.90;68.80
49222;DHT22;35047;37.588;-122.048;2023-06-05T11:09:11;20.90;68.90
49222;DHT22;35047;37.588;-122.048;2023-06-05T11:11:58;21.00;68.70
49222;DHT22;35047;37.588;-122.048;2023-06-05T11:14:43;20.90;68.50
49222;DHT22;35047;37.588;-122.048;2023-06-05T11:17:33;21.00;69.20
49222;DHT22;35047;37.588;-122.048;2023-06-05T11:20:04;21.00;68.50
49222;DHT22;35047;37.588;-122.048;2023-06-05T11:28:00;21.00;68.30
49222;DHT22;35047;37.588;-122.048;2023-06-05T11:30:44;21.00;68.30
49222;DHT22;35047;37.588;-122.048;2023-06-05T11:33:16;21.10;68.20
49222;DHT22;35047;37.588;-122.048;2023-06-05T11:35:45;21.10;68.40
49222;DHT22;35047;37.588;-122.048;2023-06-05T11:38:17;21.00;68.50
49222;DHT22;35047;37.588;-122.048;2023-06-05T11:40:44;21.00;68.50
49222;DHT22;35047;37.588;-122.048;2023-06-05T11:43:11;21.00;68.90
49222;DHT22;35047;37.588;-122.048;2023-06-05T11:45:39;21.00;68.80
49222;DHT22;35047;37.588;-122.048;2023-06-05T11:48:09;21.00;69.10
49222;DHT22;35047;37.588;-122.048;2023-06-05T11:50:38;21.00;68.80
49222;DHT22;35047;37.588;-122.048;2023-06-05T11:53:09;21.00;68.80
49222;DHT22;35047;37.588;-122.048;2023-06-05T11:55:36;21.00;68.70
49222;DHT22;35047;37.588;-122.048;2023-06-05T11:58:29;21.00;68.70
49222;DHT22;35047;37.588;-122.048;2023-06-05T12:01:17;21.00;68.70
49222;DHT22;35047;37.588;-122.048;2023-06-05T12:06:28;21.00;68.50
49222;DHT22;35047;37.588;-122.048;2023-06-05T12:09:07;21.10;68.60
49222;DHT22;35047;37.588;-122.048;2023-06-05T12:11:36;21.10;68.50
49222;DHT22;35047;37.588;-122.048;2023-06-05T12:14:06;21.10;68.40
49222;DHT22;35047;37.588;-122.048;2023-06-05T12:16:37;21.10;68.40
49222;DHT22;35047;37.588;-122.048;2023-06-05T12:19:16;21.10;68.50
49222;DHT22;35047;37.588;-122.048;2023-06-05T12:21:44;21.10;68.60
49222;DHT22;35047;37.588;-122.048;2023-06-05T12:24:11;21.10;68.50
49222;DHT22;35047;37.588;-122.048;2023-06-05T12:26:51;21.10;68.60
49222;DHT22;35047;37.588;-122.048;2023-06-05T12:29:20;21.10;68.90
49222;DHT22;35047;37.588;-122.048;2023-06-05T12:31:51;21.10;69.00
49222;DHT22;35047;37.588;-122.048;2023-06-05T12:34:17;21.10;69.00
49222;DHT22;35047;37.588;-122.048;2023-06-05T12:36:44;21.20;69.00
49222;DHT22;35047;37.588;-122.048;2023-06-05T12:39:13;21.20;68.90
49222;DHT22;35047;37.588;-122.048;2023-06-05T12:41:42;21.30;68.90
49222;DHT22;35047;37.588;-122.048;2023-06-05T12:44:10;21.30;68.60
49222;DHT22;35047;37.588;-122.048;2023-06-05T12:46:37;21.30;68.80
49222;DHT22;35047;37.588;-122.048;2023-06-05T12:49:04;21.30;68.80
49222;DHT22;35047;37.588;-122.048;2023-06-05T12:51:32;21.30;68.60
49222;DHT22;35047;37.588;-122.048;2023-06-05T12:53:58;21.30;68.40
49222;DHT22;35047;37.588;-122.048;2023-06-05T12:56:26;21.30;68.30
49222;DHT22;35047;37.588;-122.048;2023-06-05T12:58:54;21.30;68.20
49222;DHT22;35047;37.588;-122.048;2023-06-05T13:01:23;21.30;68.10
49222;DHT22;35047;37.588;-122.048;2023-06-05T13:03:51;21.30;67.90
49222;DHT22;35047;37.588;-122.048;2023-06-05T13:06:18;21.30;67.90
49222;DHT22;35047;37.588;-122.048;2023-06-05T13:08:45;21.30;67.90
49222;DHT22;35047;37.588;-122.048;2023-06-05T13:11:12;21.20;67.20
49222;DHT22;35047;37.588;-122.048;2023-06-05T13:13:39;21.20;68.10
49222;DHT22;35047;37.588;-122.048;2023-06-05T13:16:06;21.20;67.80
49222;DHT22;35047;37.588;-122.048;2023-06-05T13:18:35;21.20;67.70
49222;DHT22;35047;37.588;-122.048;2023-06-05T13:21:03;21.30;67.70
49222;DHT22;35047;37.588;-122.048;2023-06-05T13:23:30;21.20;67.70
49222;DHT22;35047;37.588;-122.048;2023-06-05T13:25:58;21.20;67.80
49222;DHT22;35047;37.588;-122.048;2023-06-05T13:28:25;21.20;67.50
49222;DHT22;35047;37.588;-122.048;2023-06-05T13:30:51;21.20;67.50
49222;DHT22;35047;37.588;-122.048;2023-06-05T13:33:22;21.20;67.60
49222;DHT22;35047;37.588;-122.048;2023-06-05T13:35:51;21.20;67.50
49222;DHT22;35047;37.588;-122.048;2023-06-05T13:38:18;21.20;67.40
49222;DHT22;35047;37.588;-122.048;2023-06-05T13:40:45;21.30;67.70
49222;DHT22;35047;37.588;-122.048;2023-06-05T13:43:15;21.30;67.30
49222;DHT22;35047;37.588;-122.048;2023-06-05T13:45:41;21.30;67.00
49222;DHT22;35047;37.588;-122.048;2023-06-05T13:48:08;21.30;67.30
49222;DHT22;35047;37.588;-122.048;2023-06-05T13:50:34;21.30;67.00
49222;DHT22;35047;37.588;-122.048;2023-06-05T13:53:01;21.30;67.00
49222;DHT22;35047;37.588;-122.048;2023-06-05T13:55:27;21.30;66.90
49222;DHT22;35047;37.588;-122.048;2023-06-05T13:57:55;21.30;67.00
49222;DHT22;35047;37.588;-122.048;2023-06-05T14:00:30;21.30;66.80
49222;DHT22;35047;37.588;-122.048;2023-06-05T14:02:58;21.30;66.90
49222;DHT22;35047;37.588;-122.048;2023-06-05T14:05:25;21.30;66.90
49222;DHT22;35047;37.588;-122.048;2023-06-05T14:07:53;21.30;66.70
49222;DHT22;35047;37.588;-122.048;2023-06-05T14:10:21;21.30;66.60
49222;DHT22;35047;37.588;-122.048;2023-06-05T14:12:49;21.30;66.40
49222;DHT22;35047;37.588;-122.048;2023-06-05T14:15:17;21.40;66.60
49222;DHT22;35047;37.588;-122.048;2023-06-05T14:17:45;21.40;66.40
49222;DHT22;35047;37.588;-122.048;2023-06-05T14:20:12;21.50;66.00
49222;DHT22;35047;37.588;-122.048;2023-06-05T14:22:40;21.50;65.90
49222;DHT22;35047;37.588;-122.048;2023-06-05T14:25:07;21.60;65.70
49222;DHT22;35047;37.588;-122.048;2023-06-05T14:27:33;21.60;65.50
49222;DHT22;35047;37.588;-122.048;2023-06-05T14:30:00;21.60;65.40
49222;DHT22;35047;37.588;-122.048;2023-06-05T14:32:26;21.70;65.10
49222;DHT22;35047;37.588;-122.048;2023-06-05T14:34:53;21.70;65.10
49222;DHT22;35047;37.588;-122.048;2023-06-05T14:37:19;21.80;64.90
49222;DHT22;35047;37.588;-122.048;2023-06-05T14:39:46;21.90;64.80
49222;DHT22;35047;37.588;-122.048;2023-06-05T14:42:13;22.00;64.50
49222;DHT22;35047;37.588;-122.048;2023-06-05T14:44:39;22.10;64.30
49222;DHT22;35047;37.588;-122.048;2023-06-05T14:47:06;22.10;64.00
49222;DHT22;35047;37.588;-122.048;2023-06-05T14:49:32;22.20;63.90
49222;DHT22;35047;37.588;-122.048;2023-06-05T14:51:59;22.20;63.70
49222;DHT22;35047;37.588;-122.048;2023-06-05T14:54:25;22.40;63.40
49222;DHT22;35047;37.588;-122.048;2023-06-05T14:56:52;22.50;63.10
49222;DHT22;35047;37.588;-122.048;2023-06-05T14:59:19;22.90;62.20
49222;DHT22;35047;37.588;-122.048;2023-06-05T15:01:45;23.20;61.50
49222;DHT22;35047;37.588;-122.048;2023-06-05T15:04:11;23.40;60.70
49222;DHT22;35047;37.588;-122.048;2023-06-05T15:06:38;23.70;59.90
49222;DHT22;35047;37.588;-122.048;2023-06-05T15:09:05;24.00;59.40
49222;DHT22;35047;37.588;-122.048;2023-06-05T15:11:31;24.30;58.90
49222;DHT22;35047;37.588;-122.048;2023-06-05T15:13:58;24.60;58.10
49222;DHT22;35047;37.588;-122.048;2023-06-05T15:16:24;24.70;57.60
49222;DHT22;35047;37.588;-122.048;2023-06-05T15:18:52;24.90;57.40
49222;DHT22;35047;37.588;-122.048;2023-06-05T15:21:19;25.20;57.00
49222;DHT22;35047;37.588;-122.048;2023-06-05T15:23:45;25.50;56.30
49222;DHT22;35047;37.588;-122.048;2023-06-05T15:26:12;25.60;55.50